El Vergel, Argentina
Current Conditions -  °F | °C
As of 6:00 PM on Sunday 23 Nov 2014 (Local Time) from SAME Reporting Station
Scattered Clouds Scattered Clouds  
Wind Chill: 93°   Ceiling: Unl
Heat Index: 93°   Visibility: 6mi
Dew Point: 43°   Wind: 6mph
Humidity: 17%   Direction: 20°NNE
Pressure: 29.5"   Gusts: NA
Location:  32.75°S, 68.6°W
Report Text: SAME 232100Z 02005KT 9999 SCT045TCU 34/06 Q0999
Loading
Personal Weather Stations






























Interactive Weather Map New forecast layout! Learn more

10-Day Weather Forecast

Advertisements
Track Severe Weather on mobile